Kerkhoven, Minnesota
Current Conditions -  °F | °C
As of 3:35 PM on Wednesday 26 Nov 2014 (Local Time) from KBDH Reporting Station
Clear Clear  
Wind Chill:   Ceiling: Unl
Heat Index: 19°   Visibility: 10mi
Dew Point: 12°   Wind: 14mph
Humidity: 74%   Direction: 300°WNW
Pressure: 30.3"   Gusts: NA
Location:  45.19°N, 95.32°W
Report Text: KBDH 262135Z AUTO 30012KT 10SM CLR M07/M11 A3030 RMK AO2
Loading
Personal Weather Stations






























Interactive Weather Map New forecast layout! Learn more

10-Day Weather Forecast

Advertisements
Track Severe Weather on mobile